sensor_id;sensor_type;location;lat;lon;timestamp;pressure;altitude;pressure_sealevel;temperature;humidity
51099;BME280;37146;48.210;16.234;2023-03-15T00:01:24;97790.38;;;6.60;67.07
51099;BME280;37146;48.210;16.234;2023-03-15T00:03:51;97810.94;;;6.56;67.50
51099;BME280;37146;48.210;16.234;2023-03-15T00:06:19;97801.25;;;6.55;66.93
51099;BME280;37146;48.210;16.234;2023-03-15T00:08:44;97812.13;;;6.50;67.11
51099;BME280;37146;48.210;16.234;2023-03-15T00:11:11;97826.34;;;6.49;67.20
51099;BME280;37146;48.210;16.234;2023-03-15T00:13:36;97822.06;;;6.47;67.58
51099;BME280;37146;48.210;16.234;2023-03-15T00:16:02;97828.91;;;6.51;66.31
51099;BME280;37146;48.210;16.234;2023-03-15T00:18:27;97835.09;;;6.52;66.85
51099;BME280;37146;48.210;16.234;2023-03-15T00:20:52;97839.09;;;6.43;67.46
51099;BME280;37146;48.210;16.234;2023-03-15T00:23:18;97833.47;;;6.49;66.73
51099;BME280;37146;48.210;16.234;2023-03-15T00:25:43;97847.75;;;6.46;67.03
51099;BME280;37146;48.210;16.234;2023-03-15T00:28:09;97850.50;;;6.45;66.82
51099;BME280;37146;48.210;16.234;2023-03-15T00:30:34;97842.44;;;6.46;66.91
51099;BME280;37146;48.210;16.234;2023-03-15T00:33:00;97842.19;;;6.51;66.32
51099;BME280;37146;48.210;16.234;2023-03-15T00:35:25;97851.88;;;6.52;66.59
51099;BME280;37146;48.210;16.234;2023-03-15T00:37:54;97840.41;;;6.52;66.24
51099;BME280;37146;48.210;16.234;2023-03-15T00:40:19;97848.47;;;6.50;65.99
51099;BME280;37146;48.210;16.234;2023-03-15T00:42:44;97859.09;;;6.50;66.24
51099;BME280;37146;48.210;16.234;2023-03-15T00:45:14;97851.03;;;6.52;65.71
51099;BME280;37146;48.210;16.234;2023-03-15T00:47:39;97873.31;;;6.49;66.56
51099;BME280;37146;48.210;16.234;2023-03-15T00:50:04;97868.00;;;6.49;66.00
51099;BME280;37146;48.210;16.234;2023-03-15T00:52:34;97867.13;;;6.48;66.16
51099;BME280;37146;48.210;16.234;2023-03-15T00:54:59;97868.94;;;6.48;66.77
51099;BME280;37146;48.210;16.234;2023-03-15T00:57:25;97872.69;;;6.44;66.46
51099;BME280;37146;48.210;16.234;2023-03-15T00:59:50;97878.63;;;6.49;66.90
51099;BME280;37146;48.210;16.234;2023-03-15T01:02:17;97875.19;;;6.47;66.59
51099;BME280;37146;48.210;16.234;2023-03-15T01:04:46;97878.63;;;6.49;66.24
51099;BME280;37146;48.210;16.234;2023-03-15T01:07:11;97885.03;;;6.45;66.30
51099;BME280;37146;48.210;16.234;2023-03-15T01:09:36;97892.22;;;6.43;66.55
51099;BME280;37146;48.210;16.234;2023-03-15T01:12:01;97897.47;;;6.44;65.92
51099;BME280;37146;48.210;16.234;2023-03-15T01:14:26;97894.88;;;6.43;66.54
51099;BME280;37146;48.210;16.234;2023-03-15T01:16:52;97903.72;;;6.43;65.95
51099;BME280;37146;48.210;16.234;2023-03-15T01:19:17;97906.53;;;6.40;66.44
51099;BME280;37146;48.210;16.234;2023-03-15T01:21:42;97910.25;;;6.36;66.75
51099;BME280;37146;48.210;16.234;2023-03-15T01:24:11;97915.03;;;6.29;67.34
51099;BME280;37146;48.210;16.234;2023-03-15T01:26:37;97921.91;;;6.33;66.88
51099;BME280;37146;48.210;16.234;2023-03-15T01:29:02;97913.25;;;6.30;66.30
51099;BME280;37146;48.210;16.234;2023-03-15T01:31:28;97908.03;;;6.28;67.00
51099;BME280;37146;48.210;16.234;2023-03-15T01:33:54;97905.28;;;6.30;68.02
51099;BME280;37146;48.210;16.234;2023-03-15T01:36:20;97923.34;;;6.23;68.91
51099;BME280;37146;48.210;16.234;2023-03-15T01:38:45;97924.13;;;6.25;70.65
51099;BME280;37146;48.210;16.234;2023-03-15T01:41:11;97931.53;;;6.18;72.29
51099;BME280;37146;48.210;16.234;2023-03-15T01:43:36;97933.50;;;6.15;73.18
51099;BME280;37146;48.210;16.234;2023-03-15T01:46:20;97951.28;;;6.13;74.30
51099;BME280;37146;48.210;16.234;2023-03-15T01:53:38;97970.72;;;5.77;79.18
51099;BME280;37146;48.210;16.234;2023-03-15T01:56:05;97973.75;;;5.69;80.25
51099;BME280;37146;48.210;16.234;2023-03-15T01:58:30;97982.94;;;5.62;80.99
51099;BME280;37146;48.210;16.234;2023-03-15T02:00:57;97978.53;;;5.62;80.92
51099;BME280;37146;48.210;16.234;2023-03-15T02:03:27;97986.31;;;5.65;81.20
51099;BME280;37146;48.210;16.234;2023-03-15T02:05:58;97982.25;;;5.58;81.30
51099;BME280;37146;48.210;16.234;2023-03-15T02:08:27;97995.00;;;5.50;81.46
51099;BME280;37146;48.210;16.234;2023-03-15T02:10:56;97999.97;;;5.38;81.76
51099;BME280;37146;48.210;16.234;2023-03-15T02:13:24;97997.81;;;5.28;82.38
51099;BME280;37146;48.210;16.234;2023-03-15T02:15:53;97998.50;;;5.31;82.54
51099;BME280;37146;48.210;16.234;2023-03-15T02:18:18;97997.75;;;5.29;82.53
51099;BME280;37146;48.210;16.234;2023-03-15T02:23:10;98008.50;;;5.26;82.03
51099;BME280;37146;48.210;16.234;2023-03-15T02:28:20;98009.69;;;5.19;82.89
51099;BME280;37146;48.210;16.234;2023-03-15T02:30:46;98006.59;;;5.09;83.29
51099;BME280;37146;48.210;16.234;2023-03-15T02:33:14;98014.69;;;5.06;83.51
51099;BME280;37146;48.210;16.234;2023-03-15T02:35:42;97994.00;;;4.95;83.53
51099;BME280;37146;48.210;16.234;2023-03-15T02:38:08;97998.50;;;4.93;83.62
51099;BME280;37146;48.210;16.234;2023-03-15T02:40:33;97990.44;;;4.75;83.74
51099;BME280;37146;48.210;16.234;2023-03-15T02:42:59;97998.66;;;4.69;83.98
51099;BME280;37146;48.210;16.234;2023-03-15T02:45:27;97989.00;;;4.68;84.12
51099;BME280;37146;48.210;16.234;2023-03-15T02:47:53;97987.94;;;4.72;83.74
51099;BME280;37146;48.210;16.234;2023-03-15T02:50:19;97988.34;;;4.63;83.87
51099;BME280;37146;48.210;16.234;2023-03-15T02:52:44;97991.03;;;4.61;84.23
51099;BME280;37146;48.210;16.234;2023-03-15T02:55:09;97992.16;;;4.56;83.74
51099;BME280;37146;48.210;16.234;2023-03-15T02:57:34;97990.41;;;4.56;83.91
51099;BME280;37146;48.210;16.234;2023-03-15T03:00:00;98001.00;;;4.56;83.94
51099;BME280;37146;48.210;16.234;2023-03-15T03:02:30;98006.63;;;4.48;84.01
51099;BME280;37146;48.210;16.234;2023-03-15T03:04:55;98015.72;;;4.41;84.48
51099;BME280;37146;48.210;16.234;2023-03-15T03:07:21;98014.03;;;4.40;84.84
51099;BME280;37146;48.210;16.234;2023-03-15T03:09:46;98020.91;;;4.44;84.17
51099;BME280;37146;48.210;16.234;2023-03-15T03:12:11;98021.19;;;4.38;84.58
51099;BME280;37146;48.210;16.234;2023-03-15T03:14:36;98018.00;;;4.30;85.10
51099;BME280;37146;48.210;16.234;2023-03-15T03:17:01;98018.53;;;4.38;84.34
51099;BME280;37146;48.210;16.234;2023-03-15T03:19:27;98014.09;;;4.39;84.62
51099;BME280;37146;48.210;16.234;2023-03-15T03:21:52;98023.41;;;4.27;84.98
51099;BME280;37146;48.210;16.234;2023-03-15T03:24:18;98028.59;;;4.30;84.21
51099;BME280;37146;48.210;16.234;2023-03-15T03:26:43;98032.09;;;4.30;84.66
51099;BME280;37146;48.210;16.234;2023-03-15T03:29:10;98035.25;;;4.18;84.82
51099;BME280;37146;48.210;16.234;2023-03-15T03:31:35;98034.94;;;4.26;84.90
51099;BME280;37146;48.210;16.234;2023-03-15T03:34:00;98043.25;;;4.16;85.65
51099;BME280;37146;48.210;16.234;2023-03-15T03:36:25;98041.88;;;4.28;85.02
51099;BME280;37146;48.210;16.234;2023-03-15T03:38:51;98042.25;;;4.19;85.20
51099;BME280;37146;48.210;16.234;2023-03-15T03:41:17;98043.25;;;4.16;84.93
51099;BME280;37146;48.210;16.234;2023-03-15T03:43:43;98036.25;;;4.15;85.02
51099;BME280;37146;48.210;16.234;2023-03-15T03:46:08;98040.53;;;4.18;84.79
51099;BME280;37146;48.210;16.234;2023-03-15T03:48:33;98044.97;;;4.17;84.75
51099;BME280;37146;48.210;16.234;2023-03-15T03:50:58;98067.13;;;4.15;85.17
51099;BME280;37146;48.210;16.234;2023-03-15T03:53:24;98066.50;;;4.08;85.14
51099;BME280;37146;48.210;16.234;2023-03-15T03:55:49;98069.28;;;4.05;85.50
51099;BME280;37146;48.210;16.234;2023-03-15T03:58:14;98070.03;;;4.09;84.91
51099;BME280;37146;48.210;16.234;2023-03-15T04:00:39;98074.41;;;4.10;85.08
51099;BME280;37146;48.210;16.234;2023-03-15T04:03:06;98062.09;;;4.09;85.05
51099;BME280;37146;48.210;16.234;2023-03-15T04:05:31;98068.50;;;4.03;84.60
51099;BME280;37146;48.210;16.234;2023-03-15T04:07:56;98071.13;;;4.03;84.84
51099;BME280;37146;48.210;16.234;2023-03-15T04:10:21;98080.25;;;3.96;84.79
51099;BME280;37146;48.210;16.234;2023-03-15T04:12:51;98077.72;;;3.93;84.88
51099;BME280;37146;48.210;16.234;2023-03-15T04:15:16;98079.19;;;3.78;84.08
51099;BME280;37146;48.210;16.234;2023-03-15T04:17:42;98089.41;;;3.87;83.89
51099;BME280;37146;48.210;16.234;2023-03-15T04:20:07;98088.78;;;3.80;82.72
51099;BME280;37146;48.210;16.234;2023-03-15T04:22:35;98099.25;;;3.83;81.47
51099;BME280;37146;48.210;16.234;2023-03-15T04:25:01;98096.00;;;3.75;80.73
51099;BME280;37146;48.210;16.234;2023-03-15T04:27:26;98109.84;;;3.83;78.67
51099;BME280;37146;48.210;16.234;2023-03-15T04:29:52;98098.91;;;3.69;76.15
51099;BME280;37146;48.210;16.234;2023-03-15T04:32:17;98105.63;;;3.78;76.84
51099;BME280;37146;48.210;16.234;2023-03-15T04:34:42;98106.84;;;3.69;74.70
51099;BME280;37146;48.210;16.234;2023-03-15T04:37:07;98115.22;;;3.80;74.41
51099;BME280;37146;48.210;16.234;2023-03-15T04:39:33;98115.94;;;3.62;74.56
51099;BME280;37146;48.210;16.234;2023-03-15T04:41:58;98118.94;;;3.52;71.81
51099;BME280;37146;48.210;16.234;2023-03-15T04:44:23;98130.38;;;3.53;71.79
51099;BME280;37146;48.210;16.234;2023-03-15T04:46:50;98135.59;;;3.54;71.01
51099;BME280;37146;48.210;16.234;2023-03-15T04:49:16;98138.22;;;3.54;70.31
51099;BME280;37146;48.210;16.234;2023-03-15T04:51:41;98132.38;;;3.46;69.15
51099;BME280;37146;48.210;16.234;2023-03-15T04:54:06;98141.13;;;3.48;69.73
51099;BME280;37146;48.210;16.234;2023-03-15T04:56:31;98140.13;;;3.51;69.32
51099;BME280;37146;48.210;16.234;2023-03-15T04:58:56;98155.34;;;3.44;69.35
51099;BME280;37146;48.210;16.234;2023-03-15T05:01:23;98160.53;;;3.47;68.01
51099;BME280;37146;48.210;16.234;2023-03-15T05:03:51;98162.59;;;3.39;67.12
51099;BME280;37146;48.210;16.234;2023-03-15T05:06:17;98162.59;;;3.39;66.85
51099;BME280;37146;48.210;16.234;2023-03-15T05:08:42;98156.56;;;3.35;67.24
51099;BME280;37146;48.210;16.234;2023-03-15T05:11:09;98169.81;;;3.34;67.43
51099;BME280;37146;48.210;16.234;2023-03-15T05:13:34;98173.38;;;3.33;66.55
51099;BME280;37146;48.210;16.234;2023-03-15T05:16:00;98182.94;;;3.37;66.93
51099;BME280;37146;48.210;16.234;2023-03-15T05:18:25;98174.91;;;3.40;65.62
51099;BME280;37146;48.210;16.234;2023-03-15T05:20:50;98181.44;;;3.30;65.87
51099;BME280;37146;48.210;16.234;2023-03-15T05:23:15;98177.09;;;3.27;66.17
51099;BME280;37146;48.210;16.234;2023-03-15T05:25:41;98183.16;;;3.31;65.53
51099;BME280;37146;48.210;16.234;2023-03-15T05:28:07;98179.16;;;3.19;66.22
51099;BME280;37146;48.210;16.234;2023-03-15T05:30:32;98189.66;;;3.20;65.16
51099;BME280;37146;48.210;16.234;2023-03-15T05:32:57;98181.53;;;3.27;64.91
51099;BME280;37146;48.210;16.234;2023-03-15T05:35:22;98179.81;;;3.25;64.71
51099;BME280;37146;48.210;16.234;2023-03-15T05:37:50;98183.53;;;3.20;64.60
51099;BME280;37146;48.210;16.234;2023-03-15T05:40:16;98189.56;;;3.23;64.89
51099;BME280;37146;48.210;16.234;2023-03-15T05:42:41;98192.28;;;3.22;64.57
51099;BME280;37146;48.210;16.234;2023-03-15T05:45:06;98189.78;;;3.17;64.02
51099;BME280;37146;48.210;16.234;2023-03-15T05:47:31;98196.69;;;3.21;64.79
51099;BME280;37146;48.210;16.234;2023-03-15T05:49:57;98186.06;;;3.23;63.92
51099;BME280;37146;48.210;16.234;2023-03-15T05:52:22;98197.56;;;3.22;63.47
51099;BME280;37146;48.210;16.234;2023-03-15T05:54:48;98209.84;;;3.23;63.37
51099;BME280;37146;48.210;16.234;2023-03-15T05:57:13;98216.91;;;3.22;63.09
51099;BME280;37146;48.210;16.234;2023-03-15T05:59:38;98219.78;;;3.16;64.63
51099;BME280;37146;48.210;16.234;2023-03-15T06:02:04;98222.34;;;3.18;64.54
51099;BME280;37146;48.210;16.234;2023-03-15T06:04:29;98224.97;;;3.19;64.31
51099;BME280;37146;48.210;16.234;2023-03-15T06:06:54;98231.66;;;3.30;64.04
51099;BME280;37146;48.210;16.234;2023-03-15T06:09:19;98230.69;;;3.32;63.75
51099;BME280;37146;48.210;16.234;2023-03-15T06:11:44;98234.56;;;3.22;63.54
51099;BME280;37146;48.210;16.234;2023-03-15T06:14:10;98245.94;;;3.24;64.67
51099;BME280;37146;48.210;16.234;2023-03-15T06:16:35;98238.78;;;3.28;64.22
51099;BME280;37146;48.210;16.234;2023-03-15T06:19:00;98246.84;;;3.23;63.26
51099;BME280;37146;48.210;16.234;2023-03-15T06:21:25;98252.81;;;3.30;62.44
51099;BME280;37146;48.210;16.234;2023-03-15T06:23:51;98260.66;;;3.31;62.61
51099;BME280;37146;48.210;16.234;2023-03-15T06:26:16;98254.38;;;3.35;62.25
51099;BME280;37146;48.210;16.234;2023-03-15T06:28:43;98271.91;;;3.38;62.00
51099;BME280;37146;48.210;16.234;2023-03-15T06:31:12;98269.78;;;3.48;60.52
51099;BME280;37146;48.210;16.234;2023-03-15T06:33:38;98268.94;;;3.47;61.05
51099;BME280;37146;48.210;16.234;2023-03-15T06:36:03;98275.78;;;3.53;60.65
51099;BME280;37146;48.210;16.234;2023-03-15T06:38:29;98276.34;;;3.63;60.14
51099;BME280;37146;48.210;16.234;2023-03-15T06:40:55;98292.13;;;3.64;60.58
51099;BME280;37146;48.210;16.234;2023-03-15T06:43:23;98289.38;;;3.67;60.80
51099;BME280;37146;48.210;16.234;2023-03-15T06:45:48;98294.34;;;3.77;60.43
51099;BME280;37146;48.210;16.234;2023-03-15T06:48:13;98315.94;;;3.64;58.64
51099;BME280;37146;48.210;16.234;2023-03-15T06:50:39;98317.16;;;3.79;60.39
51099;BME280;37146;48.210;16.234;2023-03-15T06:53:04;98320.69;;;3.80;59.35
51099;BME280;37146;48.210;16.234;2023-03-15T06:55:29;98320.53;;;3.84;59.44
51099;BME280;37146;48.210;16.234;2023-03-15T06:57:54;98329.47;;;3.80;59.14
51099;BME280;37146;48.210;16.234;2023-03-15T07:00:20;98335.44;;;3.87;59.04
51099;BME280;37146;48.210;16.234;2023-03-15T07:02:45;98342.38;;;3.90;58.70
51099;BME280;37146;48.210;16.234;2023-03-15T07:05:10;98342.75;;;4.04;58.17
51099;BME280;37146;48.210;16.234;2023-03-15T07:07:35;98349.44;;;4.14;57.85
51099;BME280;37146;48.210;16.234;2023-03-15T07:10:01;98350.28;;;4.15;56.96
51099;BME280;37146;48.210;16.234;2023-03-15T07:12:26;98355.41;;;4.20;56.31
51099;BME280;37146;48.210;16.234;2023-03-15T07:14:51;98363.16;;;4.26;57.86
51099;BME280;37146;48.210;16.234;2023-03-15T07:17:16;98376.16;;;4.32;57.62
51099;BME280;37146;48.210;16.234;2023-03-15T07:19:42;98378.03;;;4.30;56.62
51099;BME280;37146;48.210;16.234;2023-03-15T07:22:07;98387.50;;;4.36;56.96
51099;BME280;37146;48.210;16.234;2023-03-15T07:24:32;98391.41;;;4.25;55.87
51099;BME280;37146;48.210;16.234;2023-03-15T07:26:57;98402.97;;;4.23;56.42
51099;BME280;37146;48.210;16.234;2023-03-15T07:29:23;98413.28;;;4.30;56.35
51099;BME280;37146;48.210;16.234;2023-03-15T07:31:48;98419.44;;;4.31;56.88
51099;BME280;37146;48.210;16.234;2023-03-15T07:34:14;98423.53;;;4.40;55.83
51099;BME280;37146;48.210;16.234;2023-03-15T07:36:39;98427.84;;;4.42;56.82
51099;BME280;37146;48.210;16.234;2023-03-15T07:39:04;98421.72;;;4.42;56.22
51099;BME280;37146;48.210;16.234;2023-03-15T07:41:29;98422.53;;;4.44;56.38
51099;BME280;37146;48.210;16.234;2023-03-15T07:43:55;98428.78;;;4.41;55.81
51099;BME280;37146;48.210;16.234;2023-03-15T07:46:20;98431.97;;;4.51;55.93
51099;BME280;37146;48.210;16.234;2023-03-15T07:48:45;98419.38;;;4.58;55.52
51099;BME280;37146;48.210;16.234;2023-03-15T07:51:10;98423.91;;;4.54;55.50
51099;BME280;37146;48.210;16.234;2023-03-15T07:53:36;98422.75;;;4.61;55.03
51099;BME280;37146;48.210;16.234;2023-03-15T07:56:01;98426.22;;;4.63;55.50
51099;BME280;37146;48.210;16.234;2023-03-15T07:58:26;98428.69;;;4.92;55.71
51099;BME280;37146;48.210;16.234;2023-03-15T08:00:55;98427.03;;;5.35;53.84
51099;BME280;37146;48.210;16.234;2023-03-15T08:03:20;98434.16;;;5.78;53.19
51099;BME280;37146;48.210;16.234;2023-03-15T08:05:46;98433.66;;;5.90;53.02
51099;BME280;37146;48.210;16.234;2023-03-15T08:08:11;98434.47;;;6.54;51.25
51099;BME280;37146;48.210;16.234;2023-03-15T08:10:36;98430.31;;;7.26;49.45
51099;BME280;37146;48.210;16.234;2023-03-15T08:13:01;98428.06;;;8.08;49.02
51099;BME280;37146;48.210;16.234;2023-03-15T08:15:27;98432.19;;;8.84;46.35
51099;BME280;37146;48.210;16.234;2023-03-15T08:17:52;98441.56;;;8.91;43.97
51099;BME280;37146;48.210;16.234;2023-03-15T08:20:17;98432.03;;;9.67;43.72
51099;BME280;37146;48.210;16.234;2023-03-15T08:22:43;98421.66;;;9.47;43.04
51099;BME280;37146;48.210;16.234;2023-03-15T08:25:09;98443.41;;;9.39;43.55
51099;BME280;37146;48.210;16.234;2023-03-15T08:27:35;98435.97;;;8.96;43.90
51099;BME280;37146;48.210;16.234;2023-03-15T08:30:00;98456.91;;;9.20;43.20
51099;BME280;37146;48.210;16.234;2023-03-15T08:32:25;98447.41;;;10.25;41.37
51099;BME280;37146;48.210;16.234;2023-03-15T08:34:51;98461.41;;;9.19;43.35
51099;BME280;37146;48.210;16.234;2023-03-15T08:37:17;98462.13;;;9.05;43.71
51099;BME280;37146;48.210;16.234;2023-03-15T08:39:42;98459.50;;;9.85;41.96
51099;BME280;37146;48.210;16.234;2023-03-15T08:42:07;98477.00;;;10.21;41.83
51099;BME280;37146;48.210;16.234;2023-03-15T08:44:33;98478.97;;;10.18;41.60
51099;BME280;37146;48.210;16.234;2023-03-15T08:46:58;98480.13;;;10.89;40.79
51099;BME280;37146;48.210;16.234;2023-03-15T08:49:23;98486.59;;;10.71;40.75
51099;BME280;37146;48.210;16.234;2023-03-15T08:51:49;98480.41;;;10.70;40.51
51099;BME280;37146;48.210;16.234;2023-03-15T08:54:15;98490.59;;;10.63;40.86
51099;BME280;37146;48.210;16.234;2023-03-15T08:56:40;98479.13;;;11.48;38.88
51099;BME280;37146;48.210;16.234;2023-03-15T08:59:06;98475.78;;;12.01;37.68
51099;BME280;37146;48.210;16.234;2023-03-15T09:01:31;98490.94;;;12.15;38.76
51099;BME280;37146;48.210;16.234;2023-03-15T09:03:56;98493.47;;;12.31;37.62
51099;BME280;37146;48.210;16.234;2023-03-15T09:06:21;98484.28;;;12.74;37.48
51099;BME280;37146;48.210;16.234;2023-03-15T09:08:47;98496.09;;;13.49;36.69
51099;BME280;37146;48.210;16.234;2023-03-15T09:11:12;98485.94;;;12.36;37.75
51099;BME280;37146;48.210;16.234;2023-03-15T09:13:37;98489.22;;;13.82;36.32
51099;BME280;37146;48.210;16.234;2023-03-15T09:16:03;98499.97;;;13.82;36.06
51099;BME280;37146;48.210;16.234;2023-03-15T09:18:29;98524.00;;;13.59;35.84
51099;BME280;37146;48.210;16.234;2023-03-15T09:20:54;98519.09;;;13.53;35.96
51099;BME280;37146;48.210;16.234;2023-03-15T09:23:19;98520.94;;;14.14;34.64
51099;BME280;37146;48.210;16.234;2023-03-15T09:25:45;98527.03;;;13.15;36.11
51099;BME280;37146;48.210;16.234;2023-03-15T09:28:10;98516.44;;;11.37;38.27
51099;BME280;37146;48.210;16.234;2023-03-15T09:30:36;98534.44;;;9.98;41.06
51099;BME280;37146;48.210;16.234;2023-03-15T09:33:01;98555.88;;;9.49;42.87
51099;BME280;37146;48.210;16.234;2023-03-15T09:35:26;98551.63;;;8.77;43.10
51099;BME280;37146;48.210;16.234;2023-03-15T09:37:52;98553.97;;;8.84;43.41
51099;BME280;37146;48.210;16.234;2023-03-15T09:40:21;98549.72;;;8.44;44.71
51099;BME280;37146;48.210;16.234;2023-03-15T09:48:02;98556.97;;;10.57;39.79
51099;BME280;37146;48.210;16.234;2023-03-15T09:50:33;98564.69;;;9.17;41.82
51099;BME280;37146;48.210;16.234;2023-03-15T09:53:04;98549.31;;;10.95;39.33
51099;BME280;37146;48.210;16.234;2023-03-15T09:55:32;98554.34;;;10.71;39.17
51099;BME280;37146;48.210;16.234;2023-03-15T09:58:00;98544.88;;;11.39;37.55
51099;BME280;37146;48.210;16.234;2023-03-15T10:00:37;98544.59;;;10.08;40.13
51099;BME280;37146;48.210;16.234;2023-03-15T10:03:03;98541.50;;;12.74;37.41
51099;BME280;37146;48.210;16.234;2023-03-15T10:05:36;98541.69;;;14.60;33.76
51099;BME280;37146;48.210;16.234;2023-03-15T10:08:07;98553.09;;;11.51;37.61
51099;BME280;37146;48.210;16.234;2023-03-15T10:10:33;98560.53;;;13.10;34.98
51099;BME280;37146;48.210;16.234;2023-03-15T10:13:12;98553.38;;;13.99;33.06
51099;BME280;37146;48.210;16.234;2023-03-15T10:15:47;98545.06;;;15.34;31.40
51099;BME280;37146;48.210;16.234;2023-03-15T10:18:26;98554.91;;;14.88;32.10
51099;BME280;37146;48.210;16.234;2023-03-15T10:20:59;98553.06;;;13.54;33.65
51099;BME280;37146;48.210;16.234;2023-03-15T10:26:02;98553.63;;;11.41;37.68
51099;BME280;37146;48.210;16.234;2023-03-15T10:28:30;98547.19;;;12.70;35.12
51099;BME280;37146;48.210;16.234;2023-03-15T10:31:04;98560.78;;;10.97;38.98
51099;BME280;37146;48.210;16.234;2023-03-15T10:33:35;98543.16;;;14.53;33.12
51099;BME280;37146;48.210;16.234;2023-03-15T10:36:02;98547.44;;;13.57;32.95
51099;BME280;37146;48.210;16.234;2023-03-15T10:38:28;98529.59;;;13.69;33.27
51099;BME280;37146;48.210;16.234;2023-03-15T10:40:57;98550.22;;;12.91;33.61
51099;BME280;37146;48.210;16.234;2023-03-15T10:43:24;98543.38;;;13.64;32.26
51099;BME280;37146;48.210;16.234;2023-03-15T10:48:27;98534.84;;;13.70;31.69
51099;BME280;37146;48.210;16.234;2023-03-15T10:50:54;98516.78;;;12.16;33.37
51099;BME280;37146;48.210;16.234;2023-03-15T10:53:20;98523.63;;;12.47;33.79
51099;BME280;37146;48.210;16.234;2023-03-15T10:55:46;98528.00;;;10.49;36.66
51099;BME280;37146;48.210;16.234;2023-03-15T10:58:25;98530.81;;;12.47;34.55
51099;BME280;37146;48.210;16.234;2023-03-15T11:01:02;98529.06;;;13.25;32.93
51099;BME280;37146;48.210;16.234;2023-03-15T11:03:31;98535.19;;;13.01;33.65
51099;BME280;37146;48.210;16.234;2023-03-15T11:05:56;98530.25;;;12.42;34.06
51099;BME280;37146;48.210;16.234;2023-03-15T11:08:23;98533.53;;;10.46;36.65
51099;BME280;37146;48.210;16.234;2023-03-15T11:10:56;98525.19;;;11.82;36.05
51099;BME280;37146;48.210;16.234;2023-03-15T11:13:23;98527.13;;;10.02;38.59
51099;BME280;37146;48.210;16.234;2023-03-15T11:15:58;98532.56;;;10.31;37.69
51099;BME280;37146;48.210;16.234;2023-03-15T11:18:36;98534.03;;;10.36;38.28
51099;BME280;37146;48.210;16.234;2023-03-15T11:21:02;98529.69;;;10.03;39.72
51099;BME280;37146;48.210;16.234;2023-03-15T11:23:31;98532.56;;;9.68;40.09
51099;BME280;37146;48.210;16.234;2023-03-15T11:25:58;98539.53;;;9.55;39.16
51099;BME280;37146;48.210;16.234;2023-03-15T11:28:25;98550.16;;;9.05;39.84
51099;BME280;37146;48.210;16.234;2023-03-15T11:30:51;98545.59;;;9.25;41.58
51099;BME280;37146;48.210;16.234;2023-03-15T11:33:29;98555.84;;;8.99;40.45
51099;BME280;37146;48.210;16.234;2023-03-15T11:35:57;98553.81;;;8.87;41.20
51099;BME280;37146;48.210;16.234;2023-03-15T11:38:30;98547.56;;;8.70;40.90
51099;BME280;37146;48.210;16.234;2023-03-15T11:40:57;98544.22;;;9.00;40.32
51099;BME280;37146;48.210;16.234;2023-03-15T11:43:24;98534.38;;;8.67;40.41
51099;BME280;37146;48.210;16.234;2023-03-15T11:46:03;98549.22;;;9.06;39.93
51099;BME280;37146;48.210;16.234;2023-03-15T11:48:39;98539.88;;;8.64;39.85
51099;BME280;37146;48.210;16.234;2023-03-15T11:51:06;98543.00;;;8.72;39.10
51099;BME280;37146;48.210;16.234;2023-03-15T11:53:43;98550.25;;;8.70;39.17
51099;BME280;37146;48.210;16.234;2023-03-15T11:58:58;98541.75;;;10.11;38.21
51099;BME280;37146;48.210;16.234;2023-03-15T12:01:25;98531.38;;;10.20;39.22
51099;BME280;37146;48.210;16.234;2023-03-15T12:03:54;98534.28;;;9.85;37.89
51099;BME280;37146;48.210;16.234;2023-03-15T12:06:36;98527.19;;;10.16;37.60
51099;BME280;37146;48.210;16.234;2023-03-15T12:09:02;98521.38;;;9.78;37.06
51099;BME280;37146;48.210;16.234;2023-03-15T12:11:47;98519.22;;;9.84;36.68
51099;BME280;37146;48.210;16.234;2023-03-15T12:14:24;98514.13;;;9.48;38.49
51099;BME280;37146;48.210;16.234;2023-03-15T12:16:50;98523.97;;;10.26;38.10
51099;BME280;37146;48.210;16.234;2023-03-15T12:19:16;98520.78;;;10.19;37.75
51099;BME280;37146;48.210;16.234;2023-03-15T12:21:47;98520.00;;;9.86;38.62
51099;BME280;37146;48.210;16.234;2023-03-15T12:24:35;98512.00;;;10.17;37.58
51099;BME280;37146;48.210;16.234;2023-03-15T12:27:02;98516.97;;;9.77;37.11
51099;BME280;37146;48.210;16.234;2023-03-15T12:29:29;98520.97;;;9.36;38.03
51099;BME280;37146;48.210;16.234;2023-03-15T12:31:57;98513.19;;;9.15;37.55
51099;BME280;37146;48.210;16.234;2023-03-15T12:36:55;98507.38;;;9.88;37.28
51099;BME280;37146;48.210;16.234;2023-03-15T12:39:35;98503.34;;;9.81;38.39
51099;BME280;37146;48.210;16.234;2023-03-15T12:42:01;98509.53;;;10.14;37.96
51099;BME280;37146;48.210;16.234;2023-03-15T12:47:01;98499.25;;;10.38;37.56
51099;BME280;37146;48.210;16.234;2023-03-15T12:49:28;98505.41;;;10.69;36.54
51099;BME280;37146;48.210;16.234;2023-03-15T12:54:19;98505.59;;;9.57;37.18
51099;BME280;37146;48.210;16.234;2023-03-15T12:56:46;98515.03;;;8.97;38.11
51099;BME280;37146;48.210;16.234;2023-03-15T12:59:19;98511.09;;;9.04;38.00
51099;BME280;37146;48.210;16.234;2023-03-15T13:01:48;98506.94;;;8.98;39.18
51099;BME280;37146;48.210;16.234;2023-03-15T13:04:15;98507.06;;;9.47;38.63
51099;BME280;37146;48.210;16.234;2023-03-15T13:11:32;98515.78;;;9.17;38.55
51099;BME280;37146;48.210;16.234;2023-03-15T13:14:23;98516.00;;;8.96;38.13
51099;BME280;37146;48.210;16.234;2023-03-15T13:16:57;98521.38;;;9.12;38.68
51099;BME280;37146;48.210;16.234;2023-03-15T13:19:26;98512.38;;;8.97;38.09
51099;BME280;37146;48.210;16.234;2023-03-15T13:27:06;98504.72;;;8.91;38.36
51099;BME280;37146;48.210;16.234;2023-03-15T13:29:34;98502.78;;;9.10;37.91
51099;BME280;37146;48.210;16.234;2023-03-15T13:32:07;98496.06;;;9.03;37.81
51099;BME280;37146;48.210;16.234;2023-03-15T13:34:36;98508.84;;;9.30;37.57
51099;BME280;37146;48.210;16.234;2023-03-15T13:37:01;98507.91;;;9.47;36.86